createdAt,value
2019-01-06T00:00:01.808Z,82.27
2019-01-06T00:02:12.293Z,82.15
2019-01-06T00:03:51.316Z,82.30
2019-01-06T00:07:33.654Z,81.87
2019-01-06T00:09:12.699Z,82.66
2019-01-06T00:10:51.512Z,82.07
2019-01-06T00:12:33.631Z,82.16
2019-01-06T00:14:29.847Z,81.94
2019-01-06T00:16:40.134Z,81.93
2019-01-06T00:18:18.956Z,81.85
2019-01-06T00:22:06.564Z,83.13
2019-01-06T00:23:48.587Z,82.29
2019-01-06T00:26:27.234Z,82.23
2019-01-06T00:28:06.225Z,81.99
2019-01-06T00:29:46.155Z,82.09
2019-01-06T00:32:25.231Z,81.89
2019-01-06T00:34:04.029Z,81.94
2019-01-06T00:35:42.816Z,82.19
2019-01-06T00:37:36.027Z,81.81
2019-01-06T00:39:14.793Z,81.67
2019-01-06T00:40:53.891Z,81.96
2019-01-06T00:42:52.257Z,81.60
2019-01-06T00:44:31.443Z,81.90
2019-01-06T00:46:10.424Z,82.33
2019-01-06T00:47:49.378Z,81.95
2019-01-06T00:49:29.060Z,81.56
2019-01-06T00:51:09.172Z,81.50
2019-01-06T00:52:48.005Z,81.46
2019-01-06T00:54:39.948Z,81.68
2019-01-06T00:56:37.951Z,81.55
2019-01-06T00:58:16.704Z,82.02
2019-01-06T00:59:57.889Z,81.96
2019-01-06T01:01:37.766Z,81.64
2019-01-06T01:03:20.877Z,81.90
2019-01-06T01:04:59.791Z,81.82
2019-01-06T01:06:46.633Z,82.10
2019-01-06T01:08:29.640Z,81.84
2019-01-06T01:10:09.328Z,81.82
2019-01-06T01:11:54.162Z,81.88
2019-01-06T01:13:33.392Z,82.01
2019-01-06T01:15:12.380Z,81.91
2019-01-06T01:17:55.133Z,82.08
2019-01-06T01:19:34.746Z,82.46
2019-01-06T01:21:48.995Z,81.82
2019-01-06T01:23:35.950Z,81.83
2019-01-06T01:25:14.829Z,82.11
2019-01-06T01:26:53.472Z,81.93
2019-01-06T01:30:39.044Z,82.25
2019-01-06T01:32:23.746Z,82.02
2019-01-06T01:34:03.742Z,81.81
2019-01-06T01:35:42.722Z,82.14
2019-01-06T01:38:24.378Z,82.00
2019-01-06T01:40:09.388Z,81.81
2019-01-06T01:42:06.265Z,82.08
2019-01-06T01:45:50.864Z,81.74
2019-01-06T01:48:01.055Z,82.11
2019-01-06T01:49:39.841Z,82.07
2019-01-06T01:51:51.474Z,81.71
2019-01-06T01:53:34.546Z,81.93
2019-01-06T01:55:12.360Z,81.80
2019-01-06T01:57:53.062Z,82.08
2019-01-06T01:59:35.027Z,81.95
2019-01-06T02:01:16.001Z,81.84
2019-01-06T02:03:24.390Z,81.83
2019-01-06T02:05:03.267Z,81.72
2019-01-06T02:06:42.289Z,81.82
2019-01-06T02:08:21.530Z,81.70
2019-01-06T02:10:01.458Z,81.83
2019-01-06T02:11:39.425Z,81.82
2019-01-06T02:13:18.385Z,81.62
2019-01-06T02:14:58.135Z,82.07
2019-01-06T02:16:36.791Z,82.45
2019-01-06T02:18:16.978Z,81.92
2019-01-06T02:20:02.958Z,81.98
2019-01-06T02:21:42.141Z,81.99
2019-01-06T02:23:30.884Z,81.73
2019-01-06T02:25:11.759Z,82.41
2019-01-06T02:26:51.441Z,81.86
2019-01-06T02:28:32.119Z,81.84
2019-01-06T02:30:10.758Z,82.00
2019-01-06T02:31:49.583Z,81.83
2019-01-06T02:33:34.677Z,81.66
2019-01-06T02:37:16.307Z,81.89
2019-01-06T02:38:55.194Z,81.49
2019-01-06T02:41:34.771Z,81.48
2019-01-06T02:43:13.648Z,81.49
2019-01-06T02:44:52.252Z,81.67
2019-01-06T02:47:34.979Z,81.58
2019-01-06T02:49:18.845Z,81.41
2019-01-06T02:51:56.358Z,81.82
2019-01-06T02:53:36.377Z,82.18
2019-01-06T02:55:15.207Z,82.29
2019-01-06T02:56:53.804Z,82.51
2019-01-06T03:00:34.363Z,82.11
2019-01-06T03:03:16.032Z,82.15
2019-01-06T03:04:56.215Z,82.22
2019-01-06T03:06:35.551Z,82.30
2019-01-06T03:08:59.187Z,82.70
2019-01-06T03:10:39.254Z,82.50
2019-01-06T03:12:33.609Z,82.71
2019-01-06T03:14:46.820Z,82.71
2019-01-06T03:17:26.584Z,82.84
2019-01-06T03:19:36.829Z,82.38
2019-01-06T03:22:13.662Z,82.63
2019-01-06T03:26:01.185Z,82.39
2019-01-06T03:29:47.035Z,82.25
2019-01-06T03:31:32.940Z,82.63
2019-01-06T03:33:15.867Z,82.44
2019-01-06T03:35:13.237Z,82.66
2019-01-06T03:37:49.909Z,82.68
2019-01-06T03:39:28.711Z,82.74
2019-01-06T03:42:06.304Z,83.09
2019-01-06T03:43:44.171Z,83.40
2019-01-06T03:45:27.209Z,82.82
2019-01-06T03:48:03.916Z,83.16
2019-01-06T03:49:41.923Z,82.72
2019-01-06T03:53:23.566Z,82.71
2019-01-06T03:55:02.523Z,82.42
2019-01-06T03:56:43.449Z,82.26
2019-01-06T03:58:21.556Z,82.30
2019-01-06T04:00:03.464Z,82.72
2019-01-06T04:01:40.555Z,82.44
2019-01-06T04:03:28.395Z,82.63
2019-01-06T04:05:07.230Z,82.85
2019-01-06T04:06:47.031Z,82.31
2019-01-06T04:08:58.514Z,82.32
2019-01-06T04:10:37.636Z,82.50
2019-01-06T04:12:21.776Z,82.43
2019-01-06T04:14:00.858Z,82.62
2019-01-06T04:15:39.015Z,82.60
2019-01-06T04:17:17.967Z,82.57
2019-01-06T04:18:57.667Z,82.63
2019-01-06T04:20:52.193Z,82.61
2019-01-06T04:22:32.901Z,82.66
2019-01-06T04:24:17.862Z,82.73
2019-01-06T04:25:56.858Z,82.31
2019-01-06T04:27:35.585Z,82.64
2019-01-06T04:30:14.996Z,82.43
2019-01-06T04:32:52.612Z,82.75
2019-01-06T04:36:34.243Z,82.29
2019-01-06T04:38:15.117Z,82.32
2019-01-06T04:40:26.586Z,82.39
2019-01-06T04:42:05.447Z,82.36
2019-01-06T04:44:01.696Z,82.20
2019-01-06T04:46:38.050Z,82.18
2019-01-06T04:49:14.409Z,82.30
2019-01-06T04:51:23.651Z,82.39
2019-01-06T04:53:09.694Z,82.28
2019-01-06T04:55:45.554Z,82.21
2019-01-06T04:57:34.315Z,82.24
2019-01-06T05:00:13.062Z,82.13
2019-01-06T05:01:51.779Z,82.10
2019-01-06T05:03:30.599Z,82.41
2019-01-06T05:05:09.238Z,82.27
2019-01-06T05:06:48.183Z,82.44
2019-01-06T05:09:25.921Z,82.71
2019-01-06T05:11:04.430Z,82.56
2019-01-06T05:12:43.546Z,82.80
2019-01-06T05:14:22.548Z,82.75
2019-01-06T05:16:12.658Z,82.53
2019-01-06T05:17:51.501Z,82.57
2019-01-06T05:19:33.326Z,82.43
2019-01-06T05:21:12.285Z,82.82
2019-01-06T05:23:03.181Z,82.49
2019-01-06T05:24:42.484Z,82.95
2019-01-06T05:26:56.421Z,82.74
2019-01-06T05:28:35.472Z,82.44
2019-01-06T05:30:14.553Z,82.40
2019-01-06T05:32:12.913Z,82.61
2019-01-06T05:34:50.533Z,82.35
2019-01-06T05:36:28.539Z,82.72
2019-01-06T05:38:12.550Z,82.99
2019-01-06T05:39:57.673Z,82.90
2019-01-06T05:42:37.415Z,82.42
2019-01-06T05:44:21.274Z,82.96
2019-01-06T05:46:57.727Z,82.88
2019-01-06T05:48:42.784Z,82.85
2019-01-06T05:50:26.023Z,82.42
2019-01-06T05:52:04.699Z,82.41
2019-01-06T05:55:48.469Z,82.57
2019-01-06T05:57:30.203Z,82.56
2019-01-06T05:59:13.169Z,82.69
2019-01-06T06:00:58.308Z,82.44
2019-01-06T06:03:12.664Z,82.87
2019-01-06T06:05:09.115Z,82.81
2019-01-06T06:06:49.239Z,82.72
2019-01-06T06:08:29.028Z,82.77
2019-01-06T06:12:11.927Z,82.85
2019-01-06T06:13:49.691Z,82.72
2019-01-06T06:15:31.822Z,82.42
2019-01-06T06:17:46.103Z,82.48
2019-01-06T06:19:25.828Z,82.34
2019-01-06T06:21:09.892Z,82.39
2019-01-06T06:22:48.733Z,82.81
2019-01-06T06:24:33.522Z,82.46
2019-01-06T06:26:12.188Z,82.76
2019-01-06T06:28:49.877Z,82.41
2019-01-06T06:30:43.075Z,82.44
2019-01-06T06:32:26.927Z,82.32
2019-01-06T06:34:24.203Z,82.64
2019-01-06T06:36:07.331Z,82.75
2019-01-06T06:38:45.248Z,82.73
2019-01-06T06:40:24.532Z,82.68
2019-01-06T06:42:04.370Z,82.52
2019-01-06T06:43:43.288Z,82.54
2019-01-06T06:45:22.366Z,82.72
2019-01-06T06:47:01.405Z,82.68
2019-01-06T06:49:09.995Z,82.42
2019-01-06T06:50:57.984Z,82.57
2019-01-06T06:52:43.258Z,82.34
2019-01-06T06:54:23.114Z,82.58
2019-01-06T06:58:05.017Z,82.26
2019-01-06T06:59:43.893Z,82.39
2019-01-06T07:01:26.728Z,82.50
2019-01-06T07:03:13.538Z,82.34
2019-01-06T07:05:10.066Z,82.28
2019-01-06T07:06:49.156Z,82.46
2019-01-06T07:08:27.265Z,82.61
2019-01-06T07:10:07.950Z,82.67
2019-01-06T07:13:53.525Z,82.81
2019-01-06T07:16:31.140Z,82.89
2019-01-06T07:18:18.380Z,82.98
2019-01-06T07:20:57.660Z,83.10
2019-01-06T07:23:37.457Z,83.05
2019-01-06T07:25:18.467Z,83.10
2019-01-06T07:26:58.398Z,83.05
2019-01-06T07:29:36.698Z,83.11
2019-01-06T07:31:15.260Z,83.22
2019-01-06T07:32:54.482Z,83.31
2019-01-06T07:34:33.628Z,83.31
2019-01-06T07:36:22.798Z,83.47
2019-01-06T07:38:01.711Z,83.19
2019-01-06T07:39:40.415Z,83.21
2019-01-06T07:43:21.796Z,83.57
2019-01-06T07:45:57.279Z,83.43
2019-01-06T07:47:39.241Z,83.12
2019-01-06T07:49:18.632Z,83.20
2019-01-06T07:50:57.365Z,83.05
2019-01-06T07:53:33.818Z,83.05
2019-01-06T07:55:11.746Z,82.85
2019-01-06T07:56:52.793Z,83.09
2019-01-06T07:58:45.866Z,83.14
2019-01-06T08:00:28.714Z,82.74
2019-01-06T08:02:08.495Z,82.83
2019-01-06T08:03:47.409Z,82.66
2019-01-06T08:05:26.279Z,82.32
2019-01-06T08:08:04.893Z,82.24
2019-01-06T08:11:50.583Z,82.39
2019-01-06T08:13:32.592Z,82.47
2019-01-06T08:15:11.310Z,82.08
2019-01-06T08:16:55.173Z,82.60
2019-01-06T08:18:34.265Z,82.46
2019-01-06T08:20:13.302Z,82.39
2019-01-06T08:21:52.305Z,82.42
2019-01-06T08:23:33.083Z,82.53
2019-01-06T08:26:08.816Z,82.43
2019-01-06T08:27:54.854Z,82.23
2019-01-06T08:31:38.128Z,82.49
2019-01-06T08:33:17.035Z,82.35
2019-01-06T08:34:55.945Z,82.23
2019-01-06T08:36:37.165Z,82.17
2019-01-06T08:38:16.258Z,82.33
2019-01-06T08:40:54.815Z,82.66
2019-01-06T08:42:39.134Z,82.35
2019-01-06T08:45:15.886Z,82.37
2019-01-06T08:46:53.816Z,82.18
2019-01-06T08:48:33.945Z,82.65
2019-01-06T08:50:19.896Z,82.36
2019-01-06T08:51:58.903Z,82.66
2019-01-06T08:53:37.980Z,82.99
2019-01-06T08:55:19.974Z,82.58
2019-01-06T08:56:58.884Z,82.90
2019-01-06T09:00:40.503Z,83.02
2019-01-06T09:02:19.424Z,82.98
2019-01-06T09:04:56.201Z,82.79
2019-01-06T09:07:36.867Z,82.51
2019-01-06T09:09:16.795Z,82.60
2019-01-06T09:13:03.562Z,82.50
2019-01-06T09:14:50.670Z,82.23
2019-01-06T09:16:34.884Z,82.33
2019-01-06T09:18:14.139Z,82.42
2019-01-06T09:19:53.640Z,82.21
2019-01-06T09:21:36.673Z,82.04
2019-01-06T09:23:14.460Z,82.21
2019-01-06T09:24:52.518Z,82.59
2019-01-06T09:27:31.361Z,82.57
2019-01-06T09:30:13.213Z,82.59
2019-01-06T09:31:51.998Z,82.73
2019-01-06T09:33:30.970Z,82.47
2019-01-06T09:37:18.414Z,82.86
2019-01-06T09:39:54.922Z,82.93
2019-01-06T09:41:33.983Z,82.99
2019-01-06T09:43:13.380Z,83.27
2019-01-06T09:44:55.322Z,83.22
2019-01-06T09:46:34.818Z,82.70
2019-01-06T09:48:18.990Z,82.66
2019-01-06T09:49:58.159Z,83.01
2019-01-06T09:52:38.125Z,82.75
2019-01-06T09:54:48.992Z,82.38
2019-01-06T09:56:33.341Z,82.25
2019-01-06T09:58:15.229Z,82.47
2019-01-06T09:59:58.608Z,82.33
2019-01-06T10:01:38.244Z,82.01
2019-01-06T10:03:24.131Z,82.01
2019-01-06T10:06:05.760Z,81.31
2019-01-06T10:07:43.516Z,81.13
2019-01-06T10:09:35.907Z,80.71
2019-01-06T10:13:16.550Z,79.99
2019-01-06T10:17:02.381Z,79.24
2019-01-06T10:20:46.056Z,78.47
2019-01-06T10:22:26.154Z,78.25
2019-01-06T10:24:04.055Z,78.10
2019-01-06T10:26:39.889Z,77.76
2019-01-06T10:28:19.969Z,77.49
2019-01-06T10:29:59.609Z,77.37
2019-01-06T10:31:48.648Z,77.33
2019-01-06T10:33:30.442Z,77.46
2019-01-06T10:35:10.366Z,78.10
2019-01-06T10:36:49.680Z,78.03
2019-01-06T10:38:28.498Z,78.33
2019-01-06T10:40:10.396Z,78.46
2019-01-06T10:41:49.160Z,78.62
2019-01-06T10:43:30.031Z,78.82
2019-01-06T10:45:10.794Z,79.15
2019-01-06T10:48:54.854Z,79.64
2019-01-06T10:52:39.267Z,79.61
2019-01-06T10:54:50.803Z,79.74
2019-01-06T10:56:30.799Z,79.35
2019-01-06T10:58:09.620Z,79.94
2019-01-06T10:59:48.420Z,79.19
2019-01-06T11:02:01.676Z,79.49
2019-01-06T11:03:40.583Z,79.53
2019-01-06T11:05:27.799Z,78.61
2019-01-06T11:07:06.925Z,79.18
2019-01-06T11:08:47.625Z,78.82
2019-01-06T11:10:29.430Z,78.92
2019-01-06T11:12:13.758Z,79.25
2019-01-06T11:14:50.261Z,79.43
2019-01-06T11:16:29.260Z,79.12
2019-01-06T11:18:39.460Z,79.06
2019-01-06T11:20:17.466Z,78.45
2019-01-06T11:22:10.737Z,78.50
2019-01-06T11:24:48.339Z,79.19
2019-01-06T11:26:28.150Z,78.15
2019-01-06T11:30:14.211Z,78.50
2019-01-06T11:33:57.739Z,78.28
2019-01-06T11:37:40.037Z,78.27
2019-01-06T11:39:21.125Z,77.38
2019-01-06T11:41:10.183Z,78.25
2019-01-06T11:42:49.326Z,78.53
2019-01-06T11:44:29.329Z,78.20
2019-01-06T11:47:07.810Z,78.11
2019-01-06T11:48:46.657Z,78.48
2019-01-06T11:50:37.948Z,77.14
2019-01-06T11:52:17.867Z,77.94
2019-01-06T11:56:01.527Z,77.58
2019-01-06T11:57:41.195Z,77.00
2019-01-06T11:59:20.006Z,77.11
2019-01-06T12:02:00.673Z,76.85
2019-01-06T12:04:39.510Z,80.45
2019-01-06T12:06:19.259Z,76.43
2019-01-06T12:08:29.880Z,75.77
2019-01-06T12:10:14.713Z,75.82
2019-01-06T12:11:53.555Z,74.95
2019-01-06T12:13:32.407Z,73.99
2019-01-06T12:15:12.145Z,74.37
2019-01-06T12:16:51.063Z,73.67
2019-01-06T12:18:30.100Z,73.37
2019-01-06T12:20:09.824Z,74.17
2019-01-06T12:21:53.531Z,73.89
2019-01-06T12:24:35.199Z,74.68
2019-01-06T12:26:21.112Z,75.24
2019-01-06T12:28:00.095Z,74.91
2019-01-06T12:30:43.805Z,74.85
2019-01-06T12:32:22.740Z,76.33
2019-01-06T12:34:00.850Z,76.95
2019-01-06T12:35:39.599Z,76.72
2019-01-06T12:37:18.611Z,76.77
2019-01-06T12:38:57.573Z,76.40
2019-01-06T12:40:40.528Z,76.74
2019-01-06T12:42:24.378Z,76.93
2019-01-06T12:44:03.709Z,77.42
2019-01-06T12:45:43.507Z,77.62
2019-01-06T12:47:22.626Z,77.97
2019-01-06T12:50:01.180Z,77.90
2019-01-06T12:51:43.725Z,77.72
2019-01-06T12:53:23.431Z,77.03
2019-01-06T12:56:02.008Z,77.26
2019-01-06T12:57:44.443Z,77.32
2019-01-06T13:01:24.631Z,77.97
2019-01-06T13:03:36.954Z,77.47
2019-01-06T13:05:18.919Z,77.39
2019-01-06T13:06:57.181Z,77.44
2019-01-06T13:08:35.944Z,77.13
2019-01-06T13:10:14.795Z,77.10
2019-01-06T13:12:51.629Z,77.21
2019-01-06T13:14:33.700Z,77.54
2019-01-06T13:16:12.679Z,77.30
2019-01-06T13:17:52.535Z,77.91
2019-01-06T13:21:34.122Z,78.06
2019-01-06T13:23:16.915Z,78.02
2019-01-06T13:24:56.625Z,77.95
2019-01-06T13:26:36.588Z,77.71
2019-01-06T13:28:15.499Z,77.65
2019-01-06T13:31:56.016Z,77.72
2019-01-06T13:33:36.748Z,78.04
2019-01-06T13:35:16.752Z,78.12
2019-01-06T13:37:06.933Z,77.87
2019-01-06T13:40:51.339Z,78.08
2019-01-06T13:43:01.813Z,78.41
2019-01-06T13:44:47.802Z,78.68
2019-01-06T13:46:28.927Z,79.31
2019-01-06T13:48:07.023Z,79.17
2019-01-06T13:49:47.115Z,79.35
2019-01-06T13:51:41.341Z,79.24
2019-01-06T13:53:23.922Z,79.31
2019-01-06T13:55:01.152Z,79.26
2019-01-06T13:56:39.896Z,79.41
2019-01-06T13:58:21.769Z,79.58
2019-01-06T14:00:07.795Z,79.44
2019-01-06T14:01:48.856Z,79.44
2019-01-06T14:04:26.515Z,79.92
2019-01-06T14:06:06.796Z,79.69
2019-01-06T14:07:50.060Z,79.74
2019-01-06T14:09:28.886Z,79.72
2019-01-06T14:12:13.639Z,79.56
2019-01-06T14:13:58.610Z,79.85
2019-01-06T14:15:42.614Z,79.45
2019-01-06T14:19:24.416Z,79.71
2019-01-06T14:21:03.548Z,79.85
2019-01-06T14:22:51.166Z,80.01
2019-01-06T14:24:35.082Z,79.78
2019-01-06T14:26:13.915Z,80.00
2019-01-06T14:28:27.460Z,80.56
2019-01-06T14:32:50.930Z,80.75
2019-01-06T14:34:34.800Z,80.74
2019-01-06T14:36:23.099Z,81.02
2019-01-06T14:40:06.540Z,80.76
2019-01-06T14:42:45.990Z,81.24
2019-01-06T14:45:24.484Z,81.22
2019-01-06T14:47:04.972Z,81.12
2019-01-06T14:48:47.115Z,81.19
2019-01-06T14:51:03.353Z,81.11
2019-01-06T14:52:44.271Z,81.05
2019-01-06T14:54:38.450Z,80.90
2019-01-06T14:56:26.502Z,80.77
2019-01-06T14:59:10.374Z,80.65
2019-01-06T15:02:51.889Z,80.53
2019-01-06T15:05:07.160Z,80.50
2019-01-06T15:06:46.059Z,80.44
2019-01-06T15:08:27.005Z,80.32
2019-01-06T15:10:04.859Z,80.17
2019-01-06T15:13:46.616Z,80.41
2019-01-06T15:16:24.817Z,80.25
2019-01-06T15:20:08.526Z,80.27
2019-01-06T15:21:48.395Z,80.32
2019-01-06T15:23:40.517Z,80.24
2019-01-06T15:25:20.109Z,80.16
2019-01-06T15:29:03.918Z,80.22
2019-01-06T15:30:42.644Z,80.27
2019-01-06T15:32:26.663Z,80.40
2019-01-06T15:34:09.507Z,80.52
2019-01-06T15:37:52.426Z,80.59
2019-01-06T15:40:31.047Z,80.90
2019-01-06T15:42:23.323Z,80.99
2019-01-06T15:44:16.917Z,80.90
2019-01-06T15:46:55.684Z,81.01
2019-01-06T15:48:34.358Z,80.94
2019-01-06T15:50:24.676Z,81.11
2019-01-06T15:52:22.546Z,81.05
2019-01-06T15:54:02.569Z,81.29
2019-01-06T15:55:48.799Z,81.38
2019-01-06T15:59:33.648Z,81.40
2019-01-06T16:01:46.251Z,81.71
2019-01-06T16:05:29.080Z,81.85
2019-01-06T16:07:42.301Z,82.17
2019-01-06T16:09:21.224Z,82.32
2019-01-06T16:10:59.999Z,82.54
2019-01-06T16:12:57.324Z,82.62
2019-01-06T16:15:41.914Z,82.55
2019-01-06T16:17:24.569Z,82.37
2019-01-06T16:19:24.501Z,82.66
2019-01-06T16:22:07.899Z,82.42
2019-01-06T16:23:58.191Z,82.47
2019-01-06T16:25:38.146Z,82.33
2019-01-06T16:27:20.943Z,82.31
2019-01-06T16:29:05.979Z,82.23
2019-01-06T16:30:45.700Z,82.16
2019-01-06T16:32:25.679Z,82.04
2019-01-06T16:34:36.160Z,81.91
2019-01-06T16:37:16.822Z,82.06
2019-01-06T16:41:03.247Z,81.72
2019-01-06T16:42:48.362Z,81.73
2019-01-06T16:45:27.806Z,81.73
2019-01-06T16:47:06.950Z,81.87
2019-01-06T16:50:53.051Z,81.72
2019-01-06T16:52:34.832Z,81.47
2019-01-06T16:54:30.864Z,81.65
2019-01-06T16:56:40.383Z,81.58
2019-01-06T16:58:20.401Z,81.75
2019-01-06T17:00:00.249Z,81.83
2019-01-06T17:02:14.634Z,82.00
2019-01-06T17:04:51.617Z,81.96
2019-01-06T17:06:30.559Z,81.85
2019-01-06T17:09:11.216Z,82.46
2019-01-06T17:10:50.485Z,82.49
2019-01-06T17:12:44.771Z,82.15
2019-01-06T17:14:23.854Z,81.87
2019-01-06T17:16:04.011Z,81.87
2019-01-06T17:17:49.966Z,81.84
2019-01-06T17:20:37.060Z,81.87
2019-01-06T17:22:23.488Z,81.85
2019-01-06T17:26:10.307Z,81.63
2019-01-06T17:29:51.766Z,81.73
2019-01-06T17:32:34.462Z,81.67
2019-01-06T17:35:16.019Z,81.48
2019-01-06T17:36:54.862Z,81.36
2019-01-06T17:38:33.524Z,81.35
2019-01-06T17:40:15.349Z,81.07
2019-01-06T17:42:10.320Z,81.13
2019-01-06T17:43:49.568Z,81.36
2019-01-06T17:45:28.783Z,81.26
2019-01-06T17:47:07.823Z,81.17
2019-01-06T17:48:46.017Z,81.12
2019-01-06T17:50:24.767Z,81.35
2019-01-06T17:52:15.030Z,81.29
2019-01-06T17:54:08.806Z,81.11
2019-01-06T17:55:47.571Z,81.09
2019-01-06T17:57:28.494Z,81.20
2019-01-06T17:59:07.362Z,81.22
2019-01-06T18:00:57.760Z,81.20
2019-01-06T18:02:36.672Z,81.57
2019-01-06T18:04:32.573Z,81.61
2019-01-06T18:06:10.430Z,81.57
2019-01-06T18:07:59.651Z,81.52
2019-01-06T18:09:43.688Z,81.54
2019-01-06T18:11:22.615Z,81.60
2019-01-06T18:13:03.440Z,81.54
2019-01-06T18:14:58.701Z,81.46
2019-01-06T18:16:37.467Z,81.40
2019-01-06T18:18:16.196Z,81.58
2019-01-06T18:20:03.286Z,81.63
2019-01-06T18:23:46.589Z,81.56
2019-01-06T18:25:56.857Z,81.80
2019-01-06T18:28:34.673Z,81.68
2019-01-06T18:30:31.076Z,82.13
2019-01-06T18:32:09.965Z,82.18
2019-01-06T18:34:49.786Z,82.11
2019-01-06T18:36:37.867Z,82.25
2019-01-06T18:39:15.742Z,81.93
2019-01-06T18:40:55.758Z,81.77
2019-01-06T18:42:34.432Z,82.04
2019-01-06T18:44:13.423Z,82.19
2019-01-06T18:45:57.289Z,82.11
2019-01-06T18:47:35.954Z,82.15
2019-01-06T18:49:14.737Z,82.23
2019-01-06T18:50:54.668Z,81.84
2019-01-06T18:54:36.443Z,82.10
2019-01-06T18:56:14.162Z,81.85
2019-01-06T18:58:51.074Z,81.70
2019-01-06T19:01:02.229Z,81.64
2019-01-06T19:02:57.980Z,81.56
2019-01-06T19:06:40.764Z,81.60
2019-01-06T19:10:22.340Z,81.30
2019-01-06T19:13:02.757Z,81.79
2019-01-06T19:14:44.777Z,82.08
2019-01-06T19:16:51.694Z,81.77
2019-01-06T19:18:30.647Z,82.29
2019-01-06T19:21:11.308Z,82.01
2019-01-06T19:22:56.000Z,82.33
2019-01-06T19:24:43.043Z,82.12
2019-01-06T19:26:29.651Z,82.30
2019-01-06T19:30:10.321Z,82.17
2019-01-06T19:31:49.365Z,82.12
2019-01-06T19:35:34.844Z,82.19
2019-01-06T19:39:18.573Z,82.08
2019-01-06T19:40:57.614Z,82.41
2019-01-06T19:42:37.555Z,82.46
2019-01-06T19:46:22.029Z,82.33
2019-01-06T19:49:03.969Z,82.54
2019-01-06T19:53:02.292Z,82.78
2019-01-06T19:55:16.746Z,83.16
2019-01-06T19:59:04.445Z,83.03
2019-01-06T20:00:45.854Z,82.92
2019-01-06T20:02:27.167Z,83.38
2019-01-06T20:04:13.071Z,83.24
2019-01-06T20:06:01.893Z,82.83
2019-01-06T20:07:57.597Z,82.88
2019-01-06T20:09:37.357Z,82.94
2019-01-06T20:11:19.772Z,82.94
2019-01-06T20:13:05.362Z,83.14
2019-01-06T20:15:21.475Z,82.77
2019-01-06T20:17:00.307Z,82.83
2019-01-06T20:18:45.313Z,82.78
2019-01-06T20:20:24.153Z,82.63
2019-01-06T20:22:13.153Z,82.57
2019-01-06T20:23:52.995Z,82.62
2019-01-06T20:25:35.827Z,82.69
2019-01-06T20:28:12.654Z,82.82
2019-01-06T20:29:52.599Z,82.57
2019-01-06T20:32:28.012Z,82.46
2019-01-06T20:34:06.970Z,82.80
2019-01-06T20:37:49.480Z,82.69
2019-01-06T20:39:28.256Z,82.43
2019-01-06T20:41:44.765Z,82.62
2019-01-06T20:43:24.635Z,82.53
2019-01-06T20:45:03.532Z,82.35
2019-01-06T20:46:42.464Z,82.47
2019-01-06T20:49:24.849Z,82.57
2019-01-06T20:51:08.733Z,82.59
2019-01-06T20:52:52.940Z,82.58
2019-01-06T20:56:39.286Z,82.57
2019-01-06T20:58:18.106Z,82.46
2019-01-06T21:00:30.824Z,82.53
2019-01-06T21:02:15.073Z,82.52
2019-01-06T21:03:53.865Z,82.50
2019-01-06T21:05:35.801Z,82.24
2019-01-06T21:08:13.527Z,82.36
2019-01-06T21:09:52.330Z,82.24
2019-01-06T21:11:31.129Z,82.09
2019-01-06T21:13:09.949Z,82.05
2019-01-06T21:14:49.847Z,81.99
2019-01-06T21:16:28.605Z,82.05
2019-01-06T21:18:31.683Z,82.07
2019-01-06T21:22:17.621Z,81.79
2019-01-06T21:24:30.719Z,82.03
2019-01-06T21:26:09.657Z,82.22
2019-01-06T21:27:48.521Z,82.17
2019-01-06T21:29:57.561Z,82.51
2019-01-06T21:31:41.814Z,82.47
2019-01-06T21:33:21.704Z,82.57
2019-01-06T21:36:01.359Z,82.56
2019-01-06T21:37:40.006Z,82.67
2019-01-06T21:39:25.798Z,82.66
2019-01-06T21:41:08.927Z,82.57
2019-01-06T21:44:55.667Z,82.65
2019-01-06T21:48:37.530Z,82.74
2019-01-06T21:50:19.372Z,82.69
2019-01-06T21:52:27.530Z,82.60
2019-01-06T21:54:06.217Z,82.99
2019-01-06T21:55:45.074Z,82.89
2019-01-06T21:57:27.077Z,82.99
2019-01-06T21:59:06.916Z,83.01
2019-01-06T22:00:47.909Z,83.04
2019-01-06T22:04:34.586Z,83.14
2019-01-06T22:06:16.788Z,83.01
2019-01-06T22:08:54.201Z,83.21
2019-01-06T22:12:36.970Z,83.07
2019-01-06T22:14:35.120Z,83.25
2019-01-06T22:16:29.190Z,83.06
2019-01-06T22:18:18.348Z,83.10
2019-01-06T22:20:02.925Z,83.19
2019-01-06T22:22:44.887Z,83.42
2019-01-06T22:24:23.745Z,83.49
2019-01-06T22:26:13.116Z,83.55
2019-01-06T22:27:54.077Z,83.56
2019-01-06T22:30:33.778Z,83.58
2019-01-06T22:32:23.790Z,83.53
2019-01-06T22:35:06.798Z,83.53
2019-01-06T22:36:53.680Z,83.47
2019-01-06T22:38:36.653Z,83.66
2019-01-06T22:40:20.693Z,83.99
2019-01-06T22:42:00.600Z,83.22
2019-01-06T22:45:44.842Z,83.38
2019-01-06T22:48:27.731Z,83.49
2019-01-06T22:52:09.418Z,83.49
2019-01-06T22:53:49.695Z,83.55
2019-01-06T22:55:29.904Z,83.55
2019-01-06T22:57:08.945Z,83.48
2019-01-06T22:58:48.893Z,83.33
2019-01-06T23:01:30.963Z,83.75
2019-01-06T23:04:08.521Z,83.35
2019-01-06T23:05:47.067Z,83.53
2019-01-06T23:08:25.242Z,83.69
2019-01-06T23:10:06.146Z,83.79
2019-01-06T23:11:50.307Z,83.61
2019-01-06T23:13:29.115Z,83.62
2019-01-06T23:15:14.221Z,83.74
2019-01-06T23:17:00.602Z,83.47
2019-01-06T23:18:39.500Z,83.46
2019-01-06T23:20:18.170Z,83.70
2019-01-06T23:22:01.527Z,83.52
2019-01-06T23:24:41.319Z,83.39
2019-01-06T23:26:21.402Z,83.59
2019-01-06T23:28:00.265Z,83.69
2019-01-06T23:29:39.051Z,83.42
2019-01-06T23:31:17.919Z,83.73
2019-01-06T23:32:56.942Z,83.59
2019-01-06T23:34:42.120Z,83.56
2019-01-06T23:36:57.207Z,83.73
2019-01-06T23:38:35.976Z,83.71
2019-01-06T23:40:17.712Z,83.66
2019-01-06T23:42:05.678Z,83.44
2019-01-06T23:43:44.391Z,83.64
2019-01-06T23:45:23.160Z,83.52
2019-01-06T23:47:09.065Z,83.77
2019-01-06T23:48:49.887Z,83.63
2019-01-06T23:50:28.767Z,83.59
2019-01-06T23:52:08.727Z,83.38
2019-01-06T23:54:04.856Z,83.28
2019-01-06T23:56:03.044Z,83.60
2019-01-06T23:57:56.005Z,83.57
2019-01-06T23:59:52.183Z,83.34
